FVRG Airport Information

Runway Information
Airport Frequencies
Airport Navaids
Airport Weather Information & NOTAM
ADDS - METARS form results

(1609 UTC 19 August 2019)
Data provider http://aviationweather.gov/metar/data/
 
Forecast for: FVRG (HARARE/MUGABE , ZW)
Text: TAF FVRG 191600Z 1918/2024 08011KT CAVOK
Forecast period: 1800 UTC 19 August 2019 to 0000 UTC 21 August 2019
Forecast type: FROM: standard forecast or significant change
Winds: from the E (80 degrees) at 13 MPH (11 knots; 5.7 m/s)
Visibility: 6 or more miles 10+ km)
Ceiling: unknown
Clouds: missing
Weather: NSW  (no significant weather)